createdAt,value
2023-05-25T00:00:49.725Z,88.89
2023-05-25T00:01:39.024Z,89.09
2023-05-25T00:02:39.245Z,88.84
2023-05-25T00:03:39.039Z,88.47
2023-05-25T00:04:39.075Z,88.17
2023-05-25T00:05:38.948Z,88.57
2023-05-25T00:06:38.953Z,88.89
2023-05-25T00:07:38.944Z,89.60
2023-05-25T00:08:38.944Z,89.50
2023-05-25T00:09:38.957Z,89.50
2023-05-25T00:10:38.932Z,89.40
2023-05-25T00:11:38.938Z,89.19
2023-05-25T00:12:38.923Z,89.70
2023-05-25T00:13:38.923Z,89.50
2023-05-25T00:14:38.927Z,89.75
2023-05-25T00:15:38.934Z,89.85
2023-05-25T00:16:38.947Z,89.54
2023-05-25T00:17:38.964Z,89.75
2023-05-25T00:18:38.912Z,89.54
2023-05-25T00:19:38.913Z,90.98
2023-05-25T00:20:39.029Z,90.67
2023-05-25T00:21:38.901Z,90.47
2023-05-25T00:22:38.933Z,90.26
2023-05-25T00:23:38.899Z,91.08
2023-05-25T00:24:38.893Z,90.98
2023-05-25T00:25:38.929Z,91.39
2023-05-25T00:26:38.880Z,92.32
2023-05-25T00:27:38.886Z,92.42
2023-05-25T00:28:38.866Z,91.08
2023-05-25T00:29:38.861Z,91.19
2023-05-25T00:30:38.994Z,90.57
2023-05-25T00:31:38.929Z,90.67
2023-05-25T00:32:38.883Z,90.06
2023-05-25T00:33:38.861Z,89.03
2023-05-25T00:34:38.865Z,88.82
2023-05-25T00:35:38.852Z,88.86
2023-05-25T00:36:38.846Z,89.28
2023-05-25T00:37:38.852Z,90.57
2023-05-25T00:38:38.836Z,91.02
2023-05-25T00:39:38.829Z,90.06
2023-05-25T00:40:38.824Z,89.89
2023-05-25T00:41:38.848Z,90.41
2023-05-25T00:42:38.823Z,90.51
2023-05-25T00:43:38.819Z,90.00
2023-05-25T00:44:38.817Z,89.58
2023-05-25T00:45:38.814Z,89.69
2023-05-25T00:46:38.943Z,89.42
2023-05-25T00:47:39.282Z,89.83
2023-05-25T00:48:38.801Z,91.06
2023-05-25T00:49:38.828Z,91.68
2023-05-25T00:50:38.790Z,92.20
2023-05-25T00:51:38.796Z,91.33
2023-05-25T00:52:38.782Z,91.27
2023-05-25T00:53:38.780Z,92.61
2023-05-25T00:54:38.783Z,92.82
2023-05-25T00:55:38.782Z,93.95
2023-05-25T00:56:38.788Z,94.05
2023-05-25T00:57:38.790Z,94.05
2023-05-25T00:58:38.764Z,94.26
2023-05-25T00:59:38.760Z,94.26
2023-05-25T01:00:38.772Z,94.67
2023-05-25T01:01:38.792Z,94.46
2023-05-25T01:02:38.917Z,94.26
2023-05-25T01:03:38.835Z,94.05
2023-05-25T01:04:38.739Z,94.15
2023-05-25T01:05:38.740Z,93.33
2023-05-25T01:06:38.732Z,92.82
2023-05-25T01:07:38.729Z,91.93
2023-05-25T01:08:38.726Z,92.24
2023-05-25T01:09:38.723Z,92.76
2023-05-25T01:10:38.716Z,93.06
2023-05-25T01:11:38.712Z,93.16
2023-05-25T01:12:38.711Z,93.27
2023-05-25T01:13:38.730Z,93.06
2023-05-25T01:14:38.709Z,93.48
2023-05-25T01:15:38.698Z,93.88
2023-05-25T01:16:38.726Z,93.88
2023-05-25T01:17:38.762Z,93.99
2023-05-25T01:18:38.689Z,94.40
2023-05-25T01:19:38.685Z,94.09
2023-05-25T01:20:38.704Z,94.20
2023-05-25T01:21:38.686Z,94.30
2023-05-25T01:22:38.672Z,94.15
2023-05-25T01:23:38.673Z,94.51
2023-05-25T01:24:38.664Z,94.05
2023-05-25T01:25:38.672Z,94.15
2023-05-25T01:26:38.661Z,93.99
2023-05-25T01:27:38.658Z,93.95
2023-05-25T01:28:38.667Z,92.82
2023-05-25T01:29:38.679Z,92.40
2023-05-25T01:30:38.645Z,92.44
2023-05-25T01:31:38.657Z,92.44
2023-05-25T01:32:38.706Z,92.82
2023-05-25T01:33:38.633Z,93.06
2023-05-25T01:34:38.637Z,93.88
2023-05-25T01:35:38.626Z,94.15
2023-05-25T01:36:38.621Z,94.15
2023-05-25T01:37:38.615Z,94.15
2023-05-25T01:38:38.631Z,94.77
2023-05-25T01:39:38.609Z,94.56
2023-05-25T01:40:38.608Z,94.15
2023-05-25T01:41:38.601Z,93.84
2023-05-25T01:42:38.596Z,92.30
2023-05-25T01:43:38.592Z,92.10
2023-05-25T01:44:38.587Z,92.20
2023-05-25T01:45:38.699Z,92.40
2023-05-25T01:46:38.621Z,92.36
2023-05-25T01:47:38.594Z,92.77
2023-05-25T01:48:38.570Z,93.08
2023-05-25T01:49:38.572Z,93.35
2023-05-25T01:50:38.566Z,93.08
2023-05-25T01:51:38.579Z,92.83
2023-05-25T01:52:38.554Z,91.74
2023-05-25T01:53:38.560Z,90.51
2023-05-25T01:54:38.550Z,90.00
2023-05-25T01:55:38.547Z,89.38
2023-05-25T01:56:38.545Z,89.83
2023-05-25T01:57:38.551Z,89.83
2023-05-25T01:58:38.539Z,91.17
2023-05-25T01:59:38.530Z,92.10
2023-05-25T02:00:38.529Z,91.99
2023-05-25T02:01:38.710Z,92.82
2023-05-25T02:02:38.561Z,93.23
2023-05-25T02:03:38.517Z,93.74
2023-05-25T02:04:38.547Z,93.95
2023-05-25T02:05:38.510Z,93.64
2023-05-25T02:06:38.506Z,93.43
2023-05-25T02:07:38.507Z,93.12
2023-05-25T02:08:38.501Z,92.10
2023-05-25T02:09:38.496Z,91.78
2023-05-25T02:10:38.494Z,91.31
2023-05-25T02:11:38.487Z,91.52
2023-05-25T02:12:38.484Z,92.55
2023-05-25T02:13:38.481Z,92.03
2023-05-25T02:14:38.484Z,92.76
2023-05-25T02:15:38.493Z,93.83
2023-05-25T02:16:38.503Z,94.76
2023-05-25T02:17:38.612Z,94.96
2023-05-25T02:18:38.473Z,95.99
2023-05-25T02:19:38.459Z,95.95
2023-05-25T02:20:38.482Z,96.61
2023-05-25T02:21:38.460Z,96.67
2023-05-25T02:22:38.450Z,96.56
2023-05-25T02:23:38.443Z,96.56
2023-05-25T02:24:38.523Z,96.77
2023-05-25T02:25:38.453Z,96.56
2023-05-25T02:26:38.441Z,96.15
2023-05-25T02:27:38.429Z,96.56
2023-05-25T02:28:38.429Z,96.77
2023-05-25T02:29:38.427Z,96.88
2023-05-25T02:30:38.416Z,96.52
2023-05-25T02:31:38.453Z,97.03
2023-05-25T02:32:38.428Z,97.34
2023-05-25T02:33:38.620Z,96.83
2023-05-25T02:34:38.401Z,97.34
2023-05-25T02:35:38.416Z,96.52
2023-05-25T02:36:38.401Z,96.42
2023-05-25T02:37:38.390Z,96.21
2023-05-25T02:38:38.387Z,95.59
2023-05-25T02:39:38.386Z,94.36
2023-05-25T02:40:38.410Z,94.09
2023-05-25T02:41:38.382Z,93.88
2023-05-25T02:42:38.394Z,93.06
2023-05-25T02:43:38.368Z,92.76
2023-05-25T02:44:38.370Z,92.34
2023-05-25T02:45:38.364Z,93.21
2023-05-25T02:46:38.407Z,93.93
2023-05-25T02:47:38.373Z,94.13
2023-05-25T02:48:38.360Z,94.13
2023-05-25T02:49:38.375Z,94.65
2023-05-25T02:50:38.339Z,95.89
2023-05-25T02:51:38.331Z,96.30
2023-05-25T02:52:38.482Z,95.95
2023-05-25T02:53:38.331Z,95.43
2023-05-25T02:54:38.322Z,94.13
2023-05-25T02:55:38.318Z,93.35
2023-05-25T02:56:38.327Z,94.34
2023-05-25T02:57:38.311Z,94.38
2023-05-25T02:58:38.308Z,94.18
2023-05-25T02:59:38.305Z,94.70
2023-05-25T03:00:38.324Z,94.80
2023-05-25T03:01:38.295Z,95.62
2023-05-25T03:02:38.339Z,96.61
2023-05-25T03:03:38.309Z,96.81
2023-05-25T03:04:38.279Z,97.13
2023-05-25T03:05:38.321Z,96.92
2023-05-25T03:06:38.271Z,97.39
2023-05-25T03:07:38.272Z,96.97
2023-05-25T03:08:38.265Z,96.97
2023-05-25T03:09:38.262Z,96.46
2023-05-25T03:10:38.258Z,96.05
2023-05-25T03:11:38.256Z,95.95
2023-05-25T03:12:38.254Z,94.96
2023-05-25T03:13:38.245Z,94.13
2023-05-25T03:14:38.242Z,93.98
2023-05-25T03:15:38.243Z,94.49
2023-05-25T03:16:38.244Z,94.65
2023-05-25T03:17:38.254Z,95.73
2023-05-25T03:18:38.231Z,96.03
2023-05-25T03:19:38.242Z,96.45
2023-05-25T03:20:38.366Z,96.81
2023-05-25T03:21:38.265Z,97.43
2023-05-25T03:22:38.210Z,97.64
2023-05-25T03:23:38.208Z,98.11
2023-05-25T03:24:38.207Z,97.90
2023-05-25T03:25:38.197Z,98.72
2023-05-25T03:26:38.203Z,98.21
2023-05-25T03:27:38.192Z,98.11
2023-05-25T03:28:38.188Z,98.06
2023-05-25T03:29:38.192Z,97.55
2023-05-25T03:30:38.179Z,97.86
2023-05-25T03:31:38.196Z,97.55
2023-05-25T03:32:38.208Z,97.24
2023-05-25T03:33:38.168Z,97.34
2023-05-25T03:34:38.164Z,97.34
2023-05-25T03:35:38.162Z,97.34
2023-05-25T03:36:38.157Z,97.03
2023-05-25T03:37:38.179Z,97.34
2023-05-25T03:38:38.153Z,97.03
2023-05-25T03:39:38.148Z,96.62
2023-05-25T03:40:38.140Z,95.80
2023-05-25T03:41:38.137Z,94.15
2023-05-25T03:42:38.136Z,93.84
2023-05-25T03:43:38.131Z,92.71
2023-05-25T03:44:40.463Z,92.71
2023-05-25T03:45:38.122Z,92.44
2023-05-25T03:46:38.173Z,92.14
2023-05-25T03:47:38.162Z,91.93
2023-05-25T03:48:38.116Z,91.72
2023-05-25T03:49:38.117Z,91.72
2023-05-25T03:50:38.108Z,92.44
2023-05-25T03:51:38.095Z,92.14
2023-05-25T03:52:38.103Z,92.65
2023-05-25T03:53:38.112Z,92.34
2023-05-25T03:54:38.089Z,92.03
2023-05-25T03:55:38.079Z,92.65
2023-05-25T03:56:38.078Z,92.44
2023-05-25T03:57:38.275Z,90.90
2023-05-25T03:58:38.097Z,90.39
2023-05-25T03:59:38.085Z,91.21
2023-05-25T04:00:38.082Z,90.73
2023-05-25T04:01:38.081Z,91.15
2023-05-25T04:02:38.114Z,91.56
2023-05-25T04:03:38.262Z,92.08
2023-05-25T04:04:38.081Z,92.49
2023-05-25T04:05:38.041Z,92.90
2023-05-25T04:06:38.044Z,93.93
2023-05-25T04:07:38.034Z,93.83
2023-05-25T04:08:38.032Z,93.52
2023-05-25T04:09:38.059Z,92.80
2023-05-25T04:10:38.022Z,92.29
2023-05-25T04:11:38.015Z,92.69
2023-05-25T04:12:38.013Z,92.29
2023-05-25T04:13:38.012Z,92.08
2023-05-25T04:14:38.009Z,92.59
2023-05-25T04:15:37.998Z,93.01
2023-05-25T04:16:38.051Z,93.83
2023-05-25T04:17:39.389Z,94.09
2023-05-25T04:18:37.990Z,94.60
2023-05-25T04:19:37.992Z,95.43
2023-05-25T04:20:38.213Z,95.95
2023-05-25T04:21:37.984Z,95.64
2023-05-25T04:22:37.981Z,96.05
2023-05-25T04:23:37.968Z,96.05
2023-05-25T04:24:37.979Z,96.15
2023-05-25T04:25:37.981Z,96.31
2023-05-25T04:26:37.958Z,96.42
2023-05-25T04:27:37.954Z,96.72
2023-05-25T04:28:37.951Z,96.83
2023-05-25T04:29:37.954Z,96.83
2023-05-25T04:30:37.941Z,97.03
2023-05-25T04:31:37.980Z,97.30
2023-05-25T04:32:37.956Z,96.27
2023-05-25T04:33:37.927Z,96.47
2023-05-25T04:34:37.939Z,97.09
2023-05-25T04:35:37.920Z,96.06
2023-05-25T04:36:37.915Z,96.58
2023-05-25T04:37:37.912Z,96.58
2023-05-25T04:38:37.915Z,96.53
2023-05-25T04:39:37.901Z,96.64
2023-05-25T04:40:37.900Z,96.73
2023-05-25T04:41:37.912Z,97.05
2023-05-25T04:42:37.897Z,96.84
2023-05-25T04:43:39.144Z,96.94
2023-05-25T04:44:37.899Z,96.80
2023-05-25T04:45:37.934Z,96.80
2023-05-25T04:46:37.926Z,96.39
2023-05-25T04:47:37.891Z,95.87
2023-05-25T04:48:37.869Z,96.18
2023-05-25T04:49:37.868Z,96.48
2023-05-25T04:50:37.861Z,96.34
2023-05-25T04:51:37.850Z,96.80
2023-05-25T04:52:37.852Z,96.28
2023-05-25T04:53:37.850Z,96.65
2023-05-25T04:54:37.847Z,96.75
2023-05-25T04:55:37.834Z,96.85
2023-05-25T04:56:37.833Z,96.81
2023-05-25T04:57:37.878Z,97.02
2023-05-25T04:58:37.829Z,97.42
2023-05-25T04:59:37.836Z,97.63
2023-05-25T05:00:37.833Z,97.53
2023-05-25T05:01:37.869Z,97.48
2023-05-25T05:02:37.997Z,97.48
2023-05-25T05:03:37.834Z,97.38
2023-05-25T05:04:37.824Z,97.48
2023-05-25T05:05:37.822Z,97.17
2023-05-25T05:06:37.803Z,97.48
2023-05-25T05:07:37.792Z,97.54
2023-05-25T05:08:37.791Z,97.33
2023-05-25T05:09:37.787Z,97.85
2023-05-25T05:10:37.807Z,97.95
2023-05-25T05:11:37.799Z,97.74
2023-05-25T05:12:37.774Z,97.74
2023-05-25T05:13:37.787Z,97.95
2023-05-25T05:14:37.790Z,97.95
2023-05-25T05:15:37.762Z,97.80
2023-05-25T05:16:37.825Z,98.00
2023-05-25T05:17:37.763Z,97.70
2023-05-25T05:18:37.751Z,97.70
2023-05-25T05:19:37.748Z,97.91
2023-05-25T05:20:37.780Z,97.34
2023-05-25T05:21:37.747Z,97.75
2023-05-25T05:22:37.743Z,97.75
2023-05-25T05:23:37.735Z,97.96
2023-05-25T05:24:37.731Z,97.55
2023-05-25T05:25:37.725Z,97.14
2023-05-25T05:26:48.210Z,97.24
2023-05-25T05:27:37.733Z,97.24
2023-05-25T05:28:37.718Z,97.75
2023-05-25T05:29:37.791Z,97.55
2023-05-25T05:30:37.711Z,97.65
2023-05-25T05:31:37.745Z,98.37
2023-05-25T05:32:37.760Z,98.07
2023-05-25T05:33:37.758Z,97.61
2023-05-25T05:34:37.739Z,97.75
2023-05-25T05:35:37.710Z,97.86
2023-05-25T05:36:48.869Z,97.86
2023-05-25T05:37:37.693Z,98.02
2023-05-25T05:38:39.955Z,98.58
2023-05-25T05:39:37.681Z,98.94
2023-05-25T05:40:37.695Z,98.83
2023-05-25T05:41:37.670Z,98.94
2023-05-25T05:42:37.687Z,98.83
2023-05-25T05:43:37.673Z,98.74
2023-05-25T05:44:37.662Z,98.22
2023-05-25T05:45:37.710Z,98.83
2023-05-25T05:46:37.765Z,99.20
2023-05-25T05:47:37.755Z,98.90
2023-05-25T05:48:37.647Z,98.58
2023-05-25T05:49:37.639Z,98.90
2023-05-25T05:50:39.568Z,98.90
2023-05-25T05:51:37.662Z,98.99
2023-05-25T05:52:37.647Z,99.20
2023-05-25T05:53:37.655Z,98.85
2023-05-25T05:54:37.627Z,98.74
2023-05-25T05:55:37.629Z,98.85
2023-05-25T05:56:37.625Z,99.05
2023-05-25T05:57:37.647Z,98.54
2023-05-25T05:58:37.614Z,98.74
2023-05-25T05:59:37.611Z,98.90
2023-05-25T06:00:37.632Z,99.15
2023-05-25T06:01:37.677Z,98.80
2023-05-25T06:02:40.698Z,98.80
2023-05-25T06:03:37.610Z,98.80
2023-05-25T06:04:37.595Z,98.60
2023-05-25T06:05:37.644Z,98.90
2023-05-25T06:06:37.585Z,98.80
2023-05-25T06:07:37.582Z,98.80
2023-05-25T06:08:37.589Z,98.70
2023-05-25T06:09:37.589Z,98.70
2023-05-25T06:10:37.576Z,98.35
2023-05-25T06:11:37.606Z,98.96
2023-05-25T06:12:37.576Z,98.75
2023-05-25T06:13:37.556Z,98.45
2023-05-25T06:14:37.563Z,97.94
2023-05-25T06:15:37.563Z,97.33
2023-05-25T06:16:37.632Z,97.42
2023-05-25T06:17:37.686Z,97.28
2023-05-25T06:18:37.548Z,97.17
2023-05-25T06:19:37.548Z,97.28
2023-05-25T06:20:37.646Z,97.17
2023-05-25T06:21:37.539Z,96.67
2023-05-25T06:22:37.532Z,95.64
2023-05-25T06:23:37.531Z,95.19
2023-05-25T06:24:37.525Z,95.29
2023-05-25T06:25:37.524Z,95.29
2023-05-25T06:26:37.547Z,95.19
2023-05-25T06:27:37.513Z,95.56
2023-05-25T06:28:37.522Z,95.56
2023-05-25T06:29:37.513Z,96.01
2023-05-25T06:30:37.508Z,96.06
2023-05-25T06:31:37.553Z,95.45
2023-05-25T06:32:37.523Z,95.25
2023-05-25T06:33:37.542Z,94.64
2023-05-25T06:34:38.312Z,94.23
2023-05-25T06:35:37.493Z,94.53
2023-05-25T06:36:37.485Z,95.20
2023-05-25T06:37:37.481Z,94.59
2023-05-25T06:38:37.480Z,95.20
2023-05-25T06:39:37.478Z,94.59
2023-05-25T06:40:37.476Z,94.79
2023-05-25T06:41:37.474Z,95.00
2023-05-25T06:42:37.468Z,95.10
2023-05-25T06:43:37.473Z,95.00
2023-05-25T06:44:37.459Z,94.90
2023-05-25T06:45:37.466Z,95.51
2023-05-25T06:46:37.485Z,95.77
2023-05-25T06:47:37.528Z,96.69
2023-05-25T06:48:37.457Z,97.09
2023-05-25T06:49:37.469Z,97.50
2023-05-25T06:50:37.465Z,97.71
2023-05-25T06:51:37.488Z,97.25
2023-05-25T06:52:37.444Z,97.87
2023-05-25T06:53:37.432Z,97.36
2023-05-25T06:54:37.432Z,95.42
2023-05-25T06:55:37.446Z,95.21
2023-05-25T06:56:37.428Z,95.21
2023-05-25T06:57:37.422Z,94.81
2023-05-25T06:58:37.440Z,94.09
2023-05-25T06:59:37.423Z,94.40
2023-05-25T07:00:37.416Z,94.60
2023-05-25T07:01:37.439Z,94.81
2023-05-25T07:02:37.437Z,92.87
2023-05-25T07:03:37.405Z,93.28
2023-05-25T07:04:37.456Z,93.18
2023-05-25T07:05:37.423Z,93.07
2023-05-25T07:06:37.404Z,92.97
2023-05-25T07:07:37.396Z,93.07
2023-05-25T07:08:37.399Z,93.54
2023-05-25T07:09:37.393Z,93.74
2023-05-25T07:10:37.390Z,93.24
2023-05-25T07:11:37.386Z,92.93
2023-05-25T07:12:37.384Z,93.07
2023-05-25T07:13:37.381Z,93.03
2023-05-25T07:14:37.396Z,91.71
2023-05-25T07:15:37.383Z,91.55
2023-05-25T07:16:37.439Z,91.50
2023-05-25T07:17:37.435Z,91.40
2023-05-25T07:18:37.376Z,90.59
2023-05-25T07:19:37.371Z,90.18
2023-05-25T07:20:37.434Z,89.77
2023-05-25T07:21:37.443Z,90.38
2023-05-25T07:22:37.369Z,90.18
2023-05-25T07:23:37.376Z,91.50
2023-05-25T07:24:37.356Z,92.01
2023-05-25T07:25:37.350Z,92.83
2023-05-25T07:26:37.354Z,93.90
2023-05-25T07:27:37.374Z,95.03
2023-05-25T07:28:37.350Z,95.23
2023-05-25T07:29:37.341Z,95.53
2023-05-25T07:30:37.342Z,95.18
2023-05-25T07:31:37.425Z,94.78
2023-05-25T07:32:37.365Z,93.76
2023-05-25T07:33:37.330Z,94.68
2023-05-25T07:34:37.331Z,93.86
2023-05-25T07:35:37.325Z,93.55
2023-05-25T07:36:37.325Z,94.17
2023-05-25T07:37:37.362Z,95.04
2023-05-25T07:38:37.324Z,94.84
2023-05-25T07:39:37.314Z,93.41
2023-05-25T07:40:37.322Z,93.51
2023-05-25T07:41:37.312Z,94.23
2023-05-25T07:42:37.314Z,94.12
2023-05-25T07:43:37.311Z,94.84
2023-05-25T07:44:37.307Z,94.18
2023-05-25T07:45:37.304Z,94.89
2023-05-25T07:46:37.328Z,94.48
2023-05-25T07:47:37.337Z,94.64
2023-05-25T07:48:37.293Z,93.77
2023-05-25T07:49:37.295Z,93.02
2023-05-25T07:50:37.299Z,89.70
2023-05-25T07:51:37.287Z,87.87
2023-05-25T07:52:37.289Z,87.87
2023-05-25T07:53:37.302Z,89.00
2023-05-25T07:54:37.315Z,86.96
2023-05-25T07:55:37.274Z,86.45
2023-05-25T07:56:37.278Z,86.19
2023-05-25T07:57:37.276Z,86.59
2023-05-25T07:58:37.270Z,87.41
2023-05-25T07:59:37.298Z,87.00
2023-05-25T08:00:37.276Z,87.92
2023-05-25T08:01:37.261Z,87.10
2023-05-25T08:02:37.626Z,86.39
2023-05-25T08:03:48.835Z,85.37
2023-05-25T08:04:37.427Z,85.17
2023-05-25T08:05:37.253Z,85.58
2023-05-25T08:06:37.255Z,86.08
2023-05-25T08:07:37.249Z,86.80
2023-05-25T08:08:37.249Z,87.92
2023-05-25T08:09:37.264Z,88.48
2023-05-25T08:10:37.249Z,88.28
2023-05-25T08:11:37.240Z,88.39
2023-05-25T08:12:47.835Z,90.11
2023-05-25T08:13:37.237Z,90.11
2023-05-25T08:14:37.236Z,87.63
2023-05-25T08:15:37.232Z,87.67
2023-05-25T08:16:37.236Z,86.41
2023-05-25T08:17:37.242Z,85.70
2023-05-25T08:18:37.228Z,84.21
2023-05-25T08:19:37.220Z,84.25
2023-05-25T08:20:37.270Z,84.45
2023-05-25T08:21:37.212Z,85.06
2023-05-25T08:22:37.215Z,84.05
2023-05-25T08:23:37.207Z,83.95
2023-05-25T08:24:37.208Z,84.05
2023-05-25T08:25:37.223Z,85.06
2023-05-25T08:26:52.997Z,84.92
2023-05-25T08:27:37.203Z,84.82
2023-05-25T08:28:37.201Z,83.76
2023-05-25T08:29:37.192Z,83.70
2023-05-25T08:30:37.225Z,83.09
2023-05-25T08:31:37.323Z,82.85
2023-05-25T08:32:37.226Z,83.50
2023-05-25T08:33:37.187Z,83.15
2023-05-25T08:34:37.189Z,83.29
2023-05-25T08:35:37.180Z,84.01
2023-05-25T08:36:37.176Z,86.10
2023-05-25T08:37:37.175Z,84.99
2023-05-25T08:38:37.173Z,84.99
2023-05-25T08:39:37.179Z,84.44
2023-05-25T08:40:37.170Z,81.79
2023-05-25T08:41:37.191Z,81.59
2023-05-25T08:42:37.168Z,81.43
2023-05-25T08:43:37.166Z,81.12
2023-05-25T08:44:37.175Z,83.36
2023-05-25T08:45:40.518Z,83.26
2023-05-25T08:46:37.167Z,83.32
2023-05-25T08:47:37.178Z,84.84
2023-05-25T08:48:41.869Z,82.81
2023-05-25T08:49:37.223Z,80.68
2023-05-25T08:50:37.161Z,81.79
2023-05-25T08:51:37.155Z,81.05
2023-05-25T08:52:37.149Z,80.88
2023-05-25T08:53:37.143Z,82.61
2023-05-25T08:54:37.145Z,83.12
2023-05-25T08:55:37.134Z,83.22
2023-05-25T08:56:37.199Z,83.32
2023-05-25T08:57:37.159Z,83.18
2023-05-25T08:58:37.129Z,82.98
2023-05-25T08:59:37.129Z,84.13
2023-05-25T09:00:37.121Z,84.40
2023-05-25T09:01:37.163Z,83.75
2023-05-25T09:02:37.646Z,82.64
2023-05-25T09:03:37.181Z,80.74
2023-05-25T09:04:37.122Z,81.01
2023-05-25T09:05:38.186Z,81.21
2023-05-25T09:06:37.129Z,81.45
2023-05-25T09:07:37.113Z,81.76
2023-05-25T09:08:37.100Z,80.74
2023-05-25T09:09:37.108Z,80.68
2023-05-25T09:10:37.120Z,81.02
2023-05-25T09:11:40.361Z,82.85
2023-05-25T09:12:37.099Z,81.98
2023-05-25T09:13:37.115Z,82.24
2023-05-25T09:14:37.094Z,83.36
2023-05-25T09:15:37.089Z,82.07
2023-05-25T09:16:37.124Z,82.28
2023-05-25T09:17:38.259Z,81.26
2023-05-25T09:18:37.098Z,81.73
2023-05-25T09:19:37.087Z,83.09
2023-05-25T09:20:37.108Z,81.46
2023-05-25T09:21:37.075Z,82.04
2023-05-25T09:22:37.073Z,82.38
2023-05-25T09:23:37.070Z,81.43
2023-05-25T09:24:37.078Z,81.37
2023-05-25T09:25:37.070Z,81.73
2023-05-25T09:26:37.077Z,82.85
2023-05-25T09:27:37.079Z,83.56
2023-05-25T09:28:37.060Z,81.84
2023-05-25T09:29:37.080Z,82.54
2023-05-25T09:30:37.055Z,82.20
2023-05-25T09:31:37.076Z,81.79
2023-05-25T09:32:37.078Z,83.01
2023-05-25T09:33:37.264Z,83.53
2023-05-25T09:34:37.052Z,81.49
2023-05-25T09:35:37.045Z,82.61
2023-05-25T09:36:37.115Z,82.87
2023-05-25T09:37:37.304Z,82.06
2023-05-25T09:38:37.236Z,81.35
2023-05-25T09:39:37.158Z,81.66
2023-05-25T09:40:37.050Z,82.47
2023-05-25T09:41:37.034Z,82.67
2023-05-25T09:42:37.035Z,82.67
2023-05-25T09:43:41.943Z,82.06
2023-05-25T09:44:37.043Z,80.44
2023-05-25T09:45:38.367Z,81.05
2023-05-25T09:46:37.123Z,80.44
2023-05-25T09:47:37.039Z,81.96
2023-05-25T09:48:37.023Z,81.25
2023-05-25T09:49:37.023Z,80.13
2023-05-25T09:50:37.020Z,78.95
2023-05-25T09:51:37.203Z,80.07
2023-05-25T09:52:37.012Z,80.27
2023-05-25T09:53:37.024Z,80.37
2023-05-25T09:54:37.004Z,79.56
2023-05-25T09:55:51.449Z,79.66
2023-05-25T09:56:36.992Z,80.07
2023-05-25T09:57:36.996Z,79.97
2023-05-25T09:58:36.991Z,81.59
2023-05-25T09:59:37.021Z,81.39
2023-05-25T10:00:36.996Z,81.59
2023-05-25T10:01:37.058Z,82.00
2023-05-25T10:02:37.015Z,81.59
2023-05-25T10:03:38.838Z,82.87
2023-05-25T10:04:37.042Z,82.87
2023-05-25T10:05:36.988Z,81.25
2023-05-25T10:06:36.975Z,81.56
2023-05-25T10:07:36.978Z,80.54
2023-05-25T10:08:36.966Z,81.45
2023-05-25T10:09:36.968Z,80.78
2023-05-25T10:10:36.970Z,81.15
2023-05-25T10:11:36.990Z,80.13
2023-05-25T10:12:36.956Z,80.24
2023-05-25T10:13:36.962Z,79.72
2023-05-25T10:14:36.972Z,80.84
2023-05-25T10:15:36.989Z,78.81
2023-05-25T10:16:37.027Z,79.56
2023-05-25T10:17:37.064Z,80.58
2023-05-25T10:18:36.948Z,79.77
2023-05-25T10:19:36.942Z,81.70
2023-05-25T10:20:36.972Z,83.22
2023-05-25T10:21:36.949Z,83.59
2023-05-25T10:22:36.940Z,83.99
2023-05-25T10:23:36.937Z,81.86
2023-05-25T10:24:36.948Z,80.54
2023-05-25T10:25:36.939Z,78.81
2023-05-25T10:26:36.924Z,81.41
2023-05-25T10:27:36.937Z,80.50
2023-05-25T10:28:36.930Z,79.90
2023-05-25T10:29:36.926Z,80.10
2023-05-25T10:30:36.922Z,80.40
2023-05-25T10:31:36.938Z,79.18
2023-05-25T10:32:36.987Z,79.28
2023-05-25T10:33:36.925Z,78.37
2023-05-25T10:34:36.905Z,79.28
2023-05-25T10:35:47.001Z,80.80
2023-05-25T10:36:36.907Z,78.78
2023-05-25T10:37:36.904Z,78.98
2023-05-25T10:38:36.901Z,79.59
2023-05-25T10:39:36.897Z,78.17
2023-05-25T10:40:36.892Z,77.66
2023-05-25T10:41:36.910Z,78.67
2023-05-25T10:42:36.895Z,79.38
2023-05-25T10:43:36.901Z,79.90
2023-05-25T10:44:36.894Z,79.59
2023-05-25T10:45:36.896Z,78.98
2023-05-25T10:46:36.936Z,78.37
2023-05-25T10:47:36.977Z,78.74
2023-05-25T10:48:36.893Z,79.85
2023-05-25T10:49:36.887Z,78.53
2023-05-25T10:50:36.861Z,78.33
2023-05-25T10:51:36.863Z,79.65
2023-05-25T10:52:36.857Z,77.36
2023-05-25T10:53:36.855Z,79.90
2023-05-25T10:54:36.856Z,81.68
2023-05-25T10:55:36.852Z,79.85
2023-05-25T10:56:36.858Z,78.17
2023-05-25T10:57:36.851Z,78.47
2023-05-25T10:58:36.841Z,79.69
2023-05-25T10:59:36.838Z,78.88
2023-05-25T11:00:36.927Z,80.16
2023-05-25T11:01:36.974Z,79.85
2023-05-25T11:02:36.929Z,79.55
2023-05-25T11:03:36.826Z,79.55
2023-05-25T11:04:36.873Z,80.77
2023-05-25T11:05:36.867Z,77.32
2023-05-25T11:06:36.819Z,78.47
2023-05-25T11:07:36.819Z,78.37
2023-05-25T11:08:37.267Z,77.66
2023-05-25T11:09:36.815Z,79.38
2023-05-25T11:10:36.812Z,77.45
2023-05-25T11:11:36.809Z,79.08
2023-05-25T11:12:36.811Z,80.50
2023-05-25T11:13:38.928Z,79.18
2023-05-25T11:14:36.803Z,78.06
2023-05-25T11:15:36.822Z,77.76
2023-05-25T11:16:36.843Z,78.57
2023-05-25T11:17:36.836Z,77.36
2023-05-25T11:18:36.793Z,78.37
2023-05-25T11:19:37.225Z,77.97
2023-05-25T11:20:36.815Z,78.37
2023-05-25T11:21:36.808Z,78.81
2023-05-25T11:22:36.780Z,79.69
2023-05-25T11:23:36.783Z,79.02
2023-05-25T11:24:36.783Z,79.32
2023-05-25T11:25:37.227Z,78.81
2023-05-25T11:26:36.784Z,80.13
2023-05-25T11:27:36.774Z,81.76
2023-05-25T11:28:36.769Z,81.56
2023-05-25T11:29:36.770Z,81.25
2023-05-25T11:30:36.893Z,80.74
2023-05-25T11:31:41.407Z,82.73
2023-05-25T11:32:36.803Z,79.90
2023-05-25T11:33:36.755Z,80.91
2023-05-25T11:34:36.756Z,79.93
2023-05-25T11:35:36.761Z,78.41
2023-05-25T11:36:36.756Z,77.80
2023-05-25T11:37:36.768Z,77.94
2023-05-25T11:38:36.746Z,79.32
2023-05-25T11:39:36.748Z,80.54
2023-05-25T11:40:40.060Z,78.41
2023-05-25T11:41:36.826Z,80.84
2023-05-25T11:42:36.735Z,80.84
2023-05-25T11:43:36.745Z,80.24
2023-05-25T11:44:36.842Z,78.71
2023-05-25T11:45:36.737Z,77.80
2023-05-25T11:46:36.735Z,77.22
2023-05-25T11:47:38.175Z,79.12
2023-05-25T11:48:36.722Z,78.91
2023-05-25T11:49:36.729Z,79.22
2023-05-25T11:50:36.729Z,81.35
2023-05-25T11:51:36.716Z,80.80
2023-05-25T11:52:36.715Z,80.60
2023-05-25T11:53:36.731Z,80.10
2023-05-25T11:54:36.708Z,81.72
2023-05-25T11:55:36.716Z,80.19
2023-05-25T11:56:36.711Z,78.06
2023-05-25T11:57:36.698Z,77.56
2023-05-25T11:58:36.702Z,77.22
2023-05-25T11:59:36.705Z,77.25
2023-05-25T12:00:36.697Z,76.75
2023-05-25T12:01:36.724Z,77.36
2023-05-25T12:02:36.727Z,76.85
2023-05-25T12:03:36.809Z,76.75
2023-05-25T12:04:36.786Z,77.56
2023-05-25T12:05:36.729Z,77.15
2023-05-25T12:06:36.807Z,78.17
2023-05-25T12:07:36.677Z,78.47
2023-05-25T12:08:36.685Z,77.97
2023-05-25T12:09:36.726Z,80.19
2023-05-25T12:10:36.670Z,78.98
2023-05-25T12:11:36.666Z,78.06
2023-05-25T12:12:36.662Z,77.12
2023-05-25T12:13:36.863Z,77.83
2023-05-25T12:14:36.658Z,75.79
2023-05-25T12:15:36.657Z,74.38
2023-05-25T12:16:36.671Z,77.72
2023-05-25T12:17:36.676Z,79.45
2023-05-25T12:18:36.661Z,77.62
2023-05-25T12:19:36.654Z,77.32
2023-05-25T12:20:36.673Z,78.13
2023-05-25T12:21:37.377Z,77.12
2023-05-25T12:22:36.645Z,77.52
2023-05-25T12:23:36.639Z,76.98
2023-05-25T12:24:36.636Z,78.64
2023-05-25T12:25:49.547Z,77.72
2023-05-25T12:26:36.632Z,76.51
2023-05-25T12:27:36.632Z,78.40
2023-05-25T12:28:36.630Z,77.48
2023-05-25T12:29:36.625Z,76.06
2023-05-25T12:30:36.683Z,77.12
2023-05-25T12:31:36.625Z,76.78
2023-05-25T12:32:36.694Z,77.22
2023-05-25T12:33:36.627Z,78.70
2023-05-25T12:34:36.616Z,76.27
2023-05-25T12:35:36.612Z,77.99
2023-05-25T12:36:36.613Z,77.69
2023-05-25T12:37:36.610Z,75.66
2023-05-25T12:38:36.614Z,75.79
2023-05-25T12:39:36.961Z,76.57
2023-05-25T12:40:36.603Z,76.87
2023-05-25T12:41:36.623Z,75.25
2023-05-25T12:42:36.606Z,77.38
2023-05-25T12:43:36.597Z,75.96
2023-05-25T12:44:36.593Z,77.18
2023-05-25T12:45:36.595Z,77.28
2023-05-25T12:46:36.641Z,76.47
2023-05-25T12:47:36.620Z,75.86
2023-05-25T12:48:36.587Z,76.17
2023-05-25T12:49:36.587Z,76.67
2023-05-25T12:50:37.272Z,76.57
2023-05-25T12:51:36.580Z,77.48
2023-05-25T12:52:36.583Z,76.54